createdAt,value
2022-11-24T00:01:12.758Z,6.65
2022-11-24T00:03:40.671Z,6.40
2022-11-24T00:06:09.759Z,6.13
2022-11-24T00:08:37.816Z,6.38
2022-11-24T00:11:09.238Z,7.47
2022-11-24T00:13:39.460Z,5.25
2022-11-24T00:16:07.063Z,4.85
2022-11-24T00:18:34.618Z,8.80
2022-11-24T00:21:01.982Z,4.28
2022-11-24T00:23:29.729Z,4.70
2022-11-24T00:26:03.866Z,5.03
2022-11-24T00:28:31.378Z,4.50
2022-11-24T00:30:58.860Z,4.47
2022-11-24T00:33:26.640Z,4.93
2022-11-24T00:35:57.910Z,3.20
2022-11-24T00:38:26.000Z,3.67
2022-11-24T00:40:53.871Z,3.70
2022-11-24T00:43:21.699Z,3.70
2022-11-24T00:45:49.612Z,4.05
2022-11-24T00:48:17.298Z,3.30
2022-11-24T00:50:45.098Z,3.67
2022-11-24T00:53:12.609Z,3.78
2022-11-24T00:55:40.101Z,3.65
2022-11-24T00:58:07.978Z,3.35
2022-11-24T01:00:35.660Z,4.55
2022-11-24T01:03:03.316Z,4.03
2022-11-24T01:05:30.972Z,4.55
2022-11-24T01:07:58.830Z,4.65
2022-11-24T01:10:26.701Z,4.70
2022-11-24T01:12:54.429Z,4.80
2022-11-24T01:15:22.060Z,4.72
2022-11-24T01:17:49.819Z,2.83
2022-11-24T01:20:17.355Z,3.92
2022-11-24T01:22:44.898Z,4.30
2022-11-24T01:25:12.838Z,4.50
2022-11-24T01:27:40.336Z,4.20
2022-11-24T01:30:08.268Z,4.15
2022-11-24T01:32:36.472Z,4.47
2022-11-24T01:35:08.020Z,3.55
2022-11-24T01:37:35.469Z,4.40
2022-11-24T01:40:03.270Z,3.70
2022-11-24T01:42:38.288Z,4.22
2022-11-24T01:45:29.638Z,3.60
2022-11-24T01:47:57.301Z,3.30
2022-11-24T01:50:25.229Z,3.38
2022-11-24T01:52:54.996Z,4.03
2022-11-24T01:55:24.141Z,3.33
2022-11-24T01:57:55.033Z,3.55
2022-11-24T02:00:22.901Z,3.47
2022-11-24T02:02:50.903Z,3.75
2022-11-24T02:05:24.439Z,3.83
2022-11-24T02:07:53.769Z,3.67
2022-11-24T02:10:22.001Z,3.38
2022-11-24T02:12:51.465Z,3.53
2022-11-24T02:15:19.896Z,3.85
2022-11-24T02:17:47.310Z,3.95
2022-11-24T02:20:15.787Z,3.70
2022-11-24T02:23:00.448Z,3.30
2022-11-24T02:27:56.617Z,2.80
2022-11-24T02:30:24.718Z,2.60
2022-11-24T02:32:52.887Z,2.90
2022-11-24T02:35:21.339Z,2.25
2022-11-24T02:37:48.927Z,3.33
2022-11-24T02:40:17.310Z,4.13
2022-11-24T02:42:46.877Z,3.15
2022-11-24T02:45:17.065Z,3.10
2022-11-24T02:47:44.617Z,1.70
2022-11-24T02:50:12.196Z,3.72
2022-11-24T02:52:39.727Z,3.47
2022-11-24T02:55:07.341Z,3.78
2022-11-24T02:57:34.827Z,3.55
2022-11-24T03:00:02.238Z,2.90
2022-11-24T03:02:29.973Z,3.40
2022-11-24T03:04:57.588Z,2.47
2022-11-24T03:07:25.116Z,3.28
2022-11-24T03:09:52.721Z,2.72
2022-11-24T03:12:20.455Z,3.13
2022-11-24T03:14:47.799Z,4.35
2022-11-24T03:17:15.582Z,5.32
2022-11-24T03:19:43.352Z,3.97
2022-11-24T03:22:10.858Z,3.25
2022-11-24T03:24:38.867Z,3.40
2022-11-24T03:27:06.791Z,2.80
2022-11-24T03:29:34.400Z,2.53
2022-11-24T03:32:02.226Z,2.88
2022-11-24T03:34:29.928Z,2.67
2022-11-24T03:36:57.461Z,2.70
2022-11-24T03:39:24.968Z,2.40
2022-11-24T03:41:52.457Z,2.83
2022-11-24T03:44:20.038Z,3.03
2022-11-24T03:46:47.568Z,2.70
2022-11-24T03:49:15.023Z,2.97
2022-11-24T03:51:42.861Z,3.58
2022-11-24T03:54:10.792Z,3.33
2022-11-24T03:56:38.442Z,2.22
2022-11-24T03:59:06.072Z,2.60
2022-11-24T04:01:33.771Z,2.80
2022-11-24T04:04:01.472Z,2.50
2022-11-24T04:06:29.071Z,2.55
2022-11-24T04:08:56.662Z,3.17
2022-11-24T04:11:42.562Z,2.95
2022-11-24T04:14:13.621Z,2.40
2022-11-24T04:16:41.586Z,2.20
2022-11-24T04:19:08.969Z,2.50
2022-11-24T04:21:36.537Z,2.25
2022-11-24T04:24:04.071Z,2.45
2022-11-24T04:26:31.581Z,2.10
2022-11-24T04:28:59.389Z,2.13
2022-11-24T04:31:26.960Z,2.25
2022-11-24T04:33:54.713Z,3.13
2022-11-24T04:36:22.293Z,2.50
2022-11-24T04:39:24.541Z,2.00
2022-11-24T04:41:37.859Z,2.40
2022-11-24T04:44:05.308Z,1.58
2022-11-24T04:46:32.776Z,2.35
2022-11-24T04:49:00.341Z,2.20
2022-11-24T04:51:27.909Z,1.58
2022-11-24T04:53:55.999Z,2.13
2022-11-24T04:56:23.709Z,2.38
2022-11-24T04:58:51.250Z,2.15
2022-11-24T05:01:18.935Z,2.05
2022-11-24T05:03:46.525Z,1.70
2022-11-24T05:06:14.026Z,1.58
2022-11-24T05:08:41.519Z,1.88
2022-11-24T05:11:09.118Z,1.30
2022-11-24T05:13:36.591Z,1.88
2022-11-24T05:16:04.374Z,2.00
2022-11-24T05:18:31.968Z,2.50
2022-11-24T05:20:59.742Z,9.30
2022-11-24T05:23:27.609Z,3.60
2022-11-24T05:25:55.209Z,1.95
2022-11-24T05:28:22.890Z,2.10
2022-11-24T05:30:50.279Z,2.17
2022-11-24T05:33:19.629Z,1.80
2022-11-24T05:35:48.429Z,1.50
2022-11-24T05:38:16.667Z,1.38
2022-11-24T05:40:44.682Z,1.48
2022-11-24T05:43:15.818Z,1.50
2022-11-24T05:45:44.159Z,2.13
2022-11-24T05:48:14.589Z,2.67
2022-11-24T05:50:42.105Z,1.55
2022-11-24T05:53:14.379Z,1.27
2022-11-24T05:55:42.028Z,1.30
2022-11-24T05:58:09.902Z,1.55
2022-11-24T06:00:37.568Z,1.30
2022-11-24T06:03:06.079Z,1.13
2022-11-24T06:05:33.752Z,1.30
2022-11-24T06:08:01.328Z,1.48
2022-11-24T06:10:28.986Z,1.30
2022-11-24T06:12:56.829Z,1.80
2022-11-24T06:15:24.718Z,1.30
2022-11-24T06:17:56.020Z,1.60
2022-11-24T06:20:28.319Z,1.48
2022-11-24T06:22:59.132Z,1.70
2022-11-24T06:25:26.942Z,1.80
2022-11-24T06:27:54.388Z,1.70
2022-11-24T06:30:21.861Z,1.83
2022-11-24T06:32:50.195Z,1.75
2022-11-24T06:35:18.393Z,1.20
2022-11-24T06:37:46.178Z,1.30
2022-11-24T06:40:13.958Z,2.53
2022-11-24T06:42:41.652Z,1.98
2022-11-24T06:45:09.863Z,1.70
2022-11-24T06:47:37.951Z,1.73
2022-11-24T06:50:05.820Z,1.85
2022-11-24T06:52:33.611Z,2.17
2022-11-24T06:55:01.400Z,2.58
2022-11-24T06:57:31.337Z,1.70
2022-11-24T06:59:58.838Z,1.70
2022-11-24T07:02:26.613Z,1.48
2022-11-24T07:04:55.044Z,1.83
2022-11-24T07:07:22.654Z,1.98
2022-11-24T07:09:50.546Z,2.08
2022-11-24T07:12:18.083Z,1.98
2022-11-24T07:14:45.612Z,2.85
2022-11-24T07:17:13.004Z,1.80
2022-11-24T07:19:40.497Z,1.88
2022-11-24T07:22:08.301Z,2.28
2022-11-24T07:24:35.913Z,2.05
2022-11-24T07:27:05.010Z,2.13
2022-11-24T07:29:32.580Z,2.08
2022-11-24T07:32:05.208Z,2.10
2022-11-24T07:34:33.130Z,2.05
2022-11-24T07:37:00.662Z,2.03
2022-11-24T07:39:28.077Z,1.80
2022-11-24T07:41:55.558Z,1.98
2022-11-24T07:44:23.296Z,1.90
2022-11-24T07:46:52.571Z,1.70
2022-11-24T07:49:20.732Z,1.90
2022-11-24T07:51:48.276Z,2.10
2022-11-24T07:54:15.677Z,2.00
2022-11-24T07:56:43.230Z,2.38
2022-11-24T07:59:10.666Z,1.73
2022-11-24T08:01:38.155Z,1.88
2022-11-24T08:04:06.240Z,2.17
2022-11-24T08:06:40.660Z,2.63
2022-11-24T08:09:09.729Z,2.90
2022-11-24T08:11:37.534Z,1.67
2022-11-24T08:14:05.299Z,1.73
2022-11-24T08:16:33.139Z,1.88
2022-11-24T08:19:00.621Z,2.58
2022-11-24T08:21:28.336Z,2.13
2022-11-24T08:23:59.019Z,1.63
2022-11-24T08:26:26.923Z,3.00
2022-11-24T08:28:57.091Z,2.85
2022-11-24T08:31:27.739Z,2.45
2022-11-24T08:33:56.723Z,2.15
2022-11-24T08:36:24.166Z,1.85
2022-11-24T08:38:55.299Z,1.80
2022-11-24T08:41:23.495Z,2.05
2022-11-24T08:43:50.949Z,2.22
2022-11-24T08:46:19.572Z,1.98
2022-11-24T08:48:50.988Z,3.00
2022-11-24T08:51:20.524Z,0.93
2022-11-24T08:53:48.281Z,2.60
2022-11-24T08:56:15.949Z,1.92
2022-11-24T08:58:43.498Z,1.77
2022-11-24T09:01:12.504Z,2.40
2022-11-24T09:03:43.556Z,1.70
2022-11-24T09:06:16.278Z,1.70
2022-11-24T09:08:43.761Z,1.40
2022-11-24T09:11:12.715Z,2.42
2022-11-24T09:13:40.563Z,2.22
2022-11-24T09:16:09.253Z,2.53
2022-11-24T09:18:37.318Z,2.97
2022-11-24T09:21:18.519Z,2.05
2022-11-24T09:23:47.365Z,1.92
2022-11-24T09:26:19.128Z,1.88
2022-11-24T09:28:47.484Z,1.58
2022-11-24T09:31:16.289Z,1.80
2022-11-24T09:33:45.884Z,2.35
2022-11-24T09:36:14.750Z,2.72
2022-11-24T09:38:42.434Z,2.00
2022-11-24T09:41:15.730Z,1.83
2022-11-24T09:44:06.889Z,2.07
2022-11-24T09:46:34.395Z,2.40
2022-11-24T09:49:02.509Z,1.85
2022-11-24T09:51:31.024Z,1.75
2022-11-24T09:54:10.514Z,1.98
2022-11-24T09:56:39.364Z,2.20
2022-11-24T09:59:23.471Z,1.50
2022-11-24T10:01:51.995Z,2.17
2022-11-24T10:04:21.727Z,2.08
2022-11-24T10:07:07.737Z,2.03
2022-11-24T10:09:44.145Z,2.08
2022-11-24T10:12:44.374Z,2.63
2022-11-24T10:15:30.699Z,1.42
2022-11-24T10:18:16.390Z,2.50
2022-11-24T10:20:53.740Z,1.73
2022-11-24T10:23:39.718Z,1.95
2022-11-24T10:26:19.120Z,1.95
2022-11-24T10:28:52.975Z,1.73
2022-11-24T10:31:39.420Z,1.52
2022-11-24T10:34:13.769Z,2.30
2022-11-24T10:39:19.390Z,2.10
2022-11-24T10:41:57.747Z,1.65
2022-11-24T10:44:25.246Z,2.20
2022-11-24T10:46:52.968Z,1.60
2022-11-24T10:49:23.854Z,0.88
2022-11-24T10:51:54.567Z,1.60
2022-11-24T10:54:23.755Z,1.42
2022-11-24T10:56:55.159Z,1.40
2022-11-24T10:59:25.688Z,1.65
2022-11-24T11:01:54.125Z,1.95
2022-11-24T11:04:23.540Z,1.80
2022-11-24T11:06:51.207Z,2.00
2022-11-24T11:09:20.326Z,1.50
2022-11-24T11:11:50.832Z,1.73
2022-11-24T11:14:32.343Z,1.52
2022-11-24T11:17:00.316Z,1.60
2022-11-24T11:19:49.046Z,1.77
2022-11-24T11:22:28.641Z,2.00
2022-11-24T11:25:11.333Z,1.40
2022-11-24T11:27:39.424Z,1.50
2022-11-24T11:35:53.396Z,1.70
2022-11-24T11:38:21.371Z,1.50
2022-11-24T11:40:51.659Z,1.58
2022-11-24T11:43:19.355Z,1.58
2022-11-24T11:45:47.971Z,2.20
2022-11-24T11:48:42.669Z,1.50
2022-11-24T11:53:54.545Z,1.40
2022-11-24T11:56:22.256Z,1.75
2022-11-24T11:58:52.864Z,1.42
2022-11-24T12:01:27.613Z,1.25
2022-11-24T12:03:58.259Z,1.50
2022-11-24T12:06:44.084Z,1.52
2022-11-24T12:09:30.323Z,2.00
2022-11-24T12:12:00.889Z,1.70
2022-11-24T12:14:31.183Z,2.05
2022-11-24T12:17:04.557Z,2.22
2022-11-24T12:19:32.358Z,1.33
2022-11-24T12:22:03.093Z,1.30
2022-11-24T12:24:36.945Z,1.17
2022-11-24T12:27:22.229Z,1.17
2022-11-24T12:29:54.062Z,1.00
2022-11-24T12:32:24.300Z,1.40
2022-11-24T12:35:00.824Z,2.05
2022-11-24T12:37:41.774Z,1.38
2022-11-24T12:40:16.484Z,1.70
2022-11-24T12:43:02.798Z,1.25
2022-11-24T12:45:30.543Z,1.83
2022-11-24T12:48:01.436Z,0.88
2022-11-24T12:50:30.497Z,1.02
2022-11-24T12:53:03.309Z,1.40
2022-11-24T12:55:33.979Z,1.05
2022-11-24T12:58:11.313Z,1.33
2022-11-24T13:00:42.325Z,1.27
2022-11-24T13:03:36.309Z,1.48
2022-11-24T13:06:22.570Z,1.30
2022-11-24T13:08:50.304Z,1.67
2022-11-24T13:11:23.559Z,1.48
2022-11-24T13:13:58.367Z,1.48
2022-11-24T13:16:59.345Z,2.60
2022-11-24T13:19:25.345Z,2.30
2022-11-24T13:22:11.564Z,1.15
2022-11-24T13:24:40.161Z,1.40
2022-11-24T13:27:16.617Z,1.90
2022-11-24T13:29:45.338Z,7.32
2022-11-24T13:32:12.944Z,1.40
2022-11-24T13:34:43.498Z,1.02
2022-11-24T13:37:35.940Z,1.33
2022-11-24T13:40:13.603Z,1.30
2022-11-24T13:42:56.604Z,1.42
2022-11-24T13:45:54.404Z,1.08
2022-11-24T13:48:22.730Z,1.20
2022-11-24T13:50:54.365Z,1.40
2022-11-24T13:53:22.094Z,1.35
2022-11-24T13:55:59.829Z,2.00
2022-11-24T13:58:30.812Z,1.17
2022-11-24T14:01:17.230Z,1.17
2022-11-24T14:04:21.580Z,1.00
2022-11-24T14:06:35.220Z,1.70
2022-11-24T14:09:05.844Z,1.17
2022-11-24T14:11:33.382Z,1.52
2022-11-24T14:14:16.037Z,1.13
2022-11-24T14:16:46.783Z,1.55
2022-11-24T14:19:20.169Z,1.15
2022-11-24T14:21:47.865Z,1.67
2022-11-24T14:24:24.259Z,0.93
2022-11-24T14:26:52.061Z,2.95
2022-11-24T14:29:21.389Z,1.17
2022-11-24T14:31:59.179Z,1.27
2022-11-24T14:34:27.844Z,1.60
2022-11-24T14:36:56.128Z,1.40
2022-11-24T14:39:27.165Z,1.42
2022-11-24T14:41:58.042Z,1.23
2022-11-24T14:44:27.114Z,1.65
2022-11-24T14:47:08.209Z,5.68
2022-11-24T14:49:41.308Z,18.40
2022-11-24T14:52:16.793Z,7.38
2022-11-24T14:54:49.189Z,8.45
2022-11-24T14:57:45.944Z,2.08
2022-11-24T15:00:13.922Z,9.13
2022-11-24T15:03:04.627Z,8.20
2022-11-24T15:05:51.879Z,2.15
2022-11-24T15:08:19.594Z,4.47
2022-11-24T15:10:47.439Z,1.33
2022-11-24T15:13:19.564Z,2.58
2022-11-24T15:16:00.595Z,3.03
2022-11-24T15:18:42.790Z,2.55
2022-11-24T15:21:17.297Z,2.08
2022-11-24T15:24:05.212Z,2.03
2022-11-24T15:26:36.928Z,2.20
2022-11-24T15:29:09.435Z,1.25
2022-11-24T15:31:37.204Z,1.80
2022-11-24T15:34:05.060Z,1.40
2022-11-24T15:36:32.980Z,1.45
2022-11-24T15:39:00.577Z,1.60
2022-11-24T15:41:32.313Z,2.05
2022-11-24T15:44:00.877Z,2.10
2022-11-24T15:46:29.333Z,2.03
2022-11-24T15:48:57.409Z,1.80
2022-11-24T15:51:27.855Z,1.50
2022-11-24T15:54:00.773Z,1.75
2022-11-24T15:56:35.806Z,1.75
2022-11-24T16:01:33.880Z,1.27
2022-11-24T16:04:01.848Z,1.38
2022-11-24T16:06:29.564Z,1.70
2022-11-24T16:08:58.562Z,1.27
2022-11-24T16:11:26.120Z,1.80
2022-11-24T16:13:54.613Z,1.70
2022-11-24T16:16:23.505Z,1.73
2022-11-24T16:18:51.296Z,2.25
2022-11-24T16:21:18.985Z,2.00
2022-11-24T16:23:46.987Z,1.98
2022-11-24T16:26:14.597Z,1.85
2022-11-24T16:28:43.136Z,2.38
2022-11-24T16:31:10.981Z,2.13
2022-11-24T16:33:41.258Z,1.60
2022-11-24T16:36:09.004Z,1.38
2022-11-24T16:38:37.391Z,1.30
2022-11-24T16:41:05.164Z,1.20
2022-11-24T16:43:32.681Z,1.70
2022-11-24T16:46:16.573Z,1.40
2022-11-24T16:48:45.127Z,1.33
2022-11-24T16:51:13.797Z,1.65
2022-11-24T16:53:41.806Z,1.17
2022-11-24T16:56:09.721Z,1.48
2022-11-24T16:58:41.220Z,1.30
2022-11-24T17:01:12.825Z,1.70
2022-11-24T17:03:40.698Z,1.15
2022-11-24T17:06:09.441Z,1.52
2022-11-24T17:08:38.379Z,1.33
2022-11-24T17:11:16.277Z,1.48
2022-11-24T17:13:44.545Z,2.08
2022-11-24T17:16:16.901Z,1.70
2022-11-24T17:18:45.045Z,1.58
2022-11-24T17:21:14.213Z,1.65
2022-11-24T17:23:42.060Z,1.40
2022-11-24T17:26:11.448Z,1.90
2022-11-24T17:28:39.482Z,1.90
2022-11-24T17:31:22.631Z,2.05
2022-11-24T17:33:50.871Z,2.25
2022-11-24T17:36:18.631Z,1.80
2022-11-24T17:38:46.506Z,2.50
2022-11-24T17:41:14.026Z,2.00
2022-11-24T17:43:41.687Z,2.30
2022-11-24T17:46:10.476Z,2.00
2022-11-24T17:48:38.119Z,1.70
2022-11-24T17:51:08.275Z,1.35
2022-11-24T17:53:39.603Z,2.83
2022-11-24T17:56:08.230Z,1.63
2022-11-24T17:58:42.517Z,2.10
2022-11-24T18:01:10.760Z,2.17
2022-11-24T18:03:39.445Z,1.90
2022-11-24T18:06:08.234Z,2.08
2022-11-24T18:08:36.540Z,2.00
2022-11-24T18:11:07.656Z,1.75
2022-11-24T18:13:55.890Z,1.48
2022-11-24T18:16:23.120Z,1.63
2022-11-24T18:19:07.290Z,1.60
2022-11-24T18:21:36.062Z,1.45
2022-11-24T18:24:03.817Z,1.88
2022-11-24T18:26:31.399Z,1.63
2022-11-24T18:28:59.146Z,1.88
2022-11-24T18:31:26.847Z,2.13
2022-11-24T18:33:54.469Z,1.80
2022-11-24T18:36:28.349Z,2.15
2022-11-24T18:38:57.938Z,2.08
2022-11-24T18:41:25.762Z,2.00
2022-11-24T18:43:53.297Z,2.03
2022-11-24T18:46:20.842Z,1.85
2022-11-24T18:48:48.566Z,2.53
2022-11-24T18:51:16.145Z,2.67
2022-11-24T18:53:44.286Z,3.47
2022-11-24T18:56:16.295Z,3.58
2022-11-24T18:58:44.356Z,3.40
2022-11-24T19:01:11.989Z,2.45
2022-11-24T19:03:46.566Z,2.00
2022-11-24T19:06:16.940Z,2.15
2022-11-24T19:08:45.414Z,2.15
2022-11-24T19:11:19.746Z,2.47
2022-11-24T19:13:48.985Z,2.47
2022-11-24T19:16:17.292Z,1.83
2022-11-24T19:18:50.243Z,2.17
2022-11-24T19:21:20.977Z,1.70
2022-11-24T19:23:48.532Z,1.85
2022-11-24T19:26:16.020Z,2.00
2022-11-24T19:28:43.328Z,3.95
2022-11-24T19:31:11.981Z,2.30
2022-11-24T19:33:39.866Z,2.13
2022-11-24T19:36:17.977Z,2.20
2022-11-24T19:38:50.618Z,2.45
2022-11-24T19:41:20.071Z,2.38
2022-11-24T19:43:48.788Z,1.92
2022-11-24T19:46:17.425Z,2.00
2022-11-24T19:48:45.934Z,2.00
2022-11-24T19:51:15.208Z,2.00
2022-11-24T19:53:43.574Z,2.38
2022-11-24T19:56:21.516Z,2.55
2022-11-24T19:58:49.608Z,2.40
2022-11-24T20:01:18.667Z,2.33
2022-11-24T20:03:47.819Z,2.10
2022-11-24T20:06:15.799Z,2.08
2022-11-24T20:08:43.717Z,2.28
2022-11-24T20:11:18.129Z,2.30
2022-11-24T20:13:46.224Z,2.42
2022-11-24T20:16:17.068Z,2.58
2022-11-24T20:18:45.559Z,2.20
2022-11-24T20:21:13.322Z,2.47
2022-11-24T20:23:41.406Z,3.38
2022-11-24T20:26:16.789Z,2.42
2022-11-24T20:28:44.566Z,2.47
2022-11-24T20:31:13.813Z,2.20
2022-11-24T20:33:42.050Z,2.70
2022-11-24T20:36:14.390Z,2.92
2022-11-24T20:38:42.397Z,4.25
2022-11-24T20:41:14.339Z,5.15
2022-11-24T20:43:42.387Z,9.10
2022-11-24T20:46:15.224Z,8.05
2022-11-24T20:48:42.727Z,9.45
2022-11-24T20:51:11.366Z,7.78
2022-11-24T20:53:39.209Z,9.43
2022-11-24T20:56:08.616Z,8.52
2022-11-24T20:58:36.669Z,7.93
2022-11-24T21:01:05.855Z,6.78
2022-11-24T21:03:34.642Z,7.28
2022-11-24T21:06:04.735Z,6.97
2022-11-24T21:08:36.216Z,7.28
2022-11-24T21:11:04.292Z,5.80
2022-11-24T21:13:33.699Z,6.65
2022-11-24T21:16:01.562Z,5.95
2022-11-24T21:18:29.125Z,5.72
2022-11-24T21:21:00.099Z,6.75
2022-11-24T21:23:28.380Z,7.07
2022-11-24T21:26:05.034Z,7.00
2022-11-24T21:28:33.458Z,9.35
2022-11-24T21:31:08.496Z,9.90
2022-11-24T21:33:40.256Z,11.15
2022-11-24T21:36:07.970Z,10.82
2022-11-24T21:38:35.334Z,10.70
2022-11-24T21:41:03.339Z,17.30
2022-11-24T21:43:31.015Z,14.85
2022-11-24T21:46:06.024Z,10.90
2022-11-24T21:48:34.523Z,11.70
2022-11-24T21:51:02.948Z,12.63
2022-11-24T21:53:34.696Z,10.98
2022-11-24T21:56:05.554Z,9.57
2022-11-24T21:58:33.589Z,9.45
2022-11-24T22:01:05.861Z,10.30
2022-11-24T22:03:33.695Z,8.85
2022-11-24T22:06:01.990Z,7.03
2022-11-24T22:08:30.817Z,8.38
2022-11-24T22:11:02.561Z,6.60
2022-11-24T22:13:30.169Z,5.25
2022-11-24T22:16:04.811Z,10.73
2022-11-24T22:18:34.846Z,5.70
2022-11-24T22:21:05.595Z,5.20
2022-11-24T22:23:33.816Z,4.30
2022-11-24T22:26:08.636Z,4.75
2022-11-24T22:28:36.379Z,6.80
2022-11-24T22:31:05.043Z,6.93
2022-11-24T22:33:32.866Z,5.55
2022-11-24T22:36:00.976Z,4.18
2022-11-24T22:38:29.821Z,5.30
2022-11-24T22:41:02.120Z,7.13
2022-11-24T22:43:30.919Z,8.98
2022-11-24T22:45:58.483Z,8.73
2022-11-24T22:48:25.914Z,9.57
2022-11-24T22:50:53.727Z,8.57
2022-11-24T22:53:21.144Z,9.02
2022-11-24T22:55:48.689Z,9.48
2022-11-24T22:58:16.068Z,10.55
2022-11-24T23:00:43.816Z,10.43
2022-11-24T23:03:11.408Z,7.10
2022-11-24T23:05:39.286Z,5.55
2022-11-24T23:08:06.766Z,5.10
2022-11-24T23:10:34.466Z,4.43
2022-11-24T23:13:02.047Z,4.40
2022-11-24T23:15:29.507Z,4.18
2022-11-24T23:17:57.268Z,4.60
2022-11-24T23:20:24.945Z,4.18
2022-11-24T23:22:55.607Z,4.82
2022-11-24T23:25:23.229Z,6.78
2022-11-24T23:27:50.859Z,5.53
2022-11-24T23:30:18.493Z,5.70
2022-11-24T23:32:46.006Z,5.22
2022-11-24T23:35:14.141Z,4.65
2022-11-24T23:38:06.089Z,4.55
2022-11-24T23:40:29.692Z,5.50
2022-11-24T23:42:57.249Z,4.95
2022-11-24T23:45:24.806Z,4.80
2022-11-24T23:47:54.439Z,4.68
2022-11-24T23:50:21.949Z,4.85
2022-11-24T23:52:49.474Z,4.85
2022-11-24T23:55:17.539Z,4.72
2022-11-24T23:57:45.267Z,4.43
